createdAt,value
2018-06-21T00:00:58.596Z,18.92
2018-06-21T00:01:58.594Z,18.85
2018-06-21T00:02:58.542Z,18.87
2018-06-21T00:03:58.612Z,18.78
2018-06-21T00:04:58.627Z,18.88
2018-06-21T00:05:58.844Z,18.82
2018-06-21T00:06:58.561Z,18.82
2018-06-21T00:07:58.665Z,18.75
2018-06-21T00:08:58.663Z,18.80
2018-06-21T00:09:58.692Z,18.75
2018-06-21T00:10:58.612Z,18.72
2018-06-21T00:11:58.605Z,18.66
2018-06-21T00:12:58.609Z,18.66
2018-06-21T00:13:58.639Z,18.70
2018-06-21T00:14:58.612Z,18.69
2018-06-21T00:15:58.666Z,18.69
2018-06-21T00:16:58.560Z,18.67
2018-06-21T00:17:58.601Z,18.69
2018-06-21T00:18:58.662Z,18.69
2018-06-21T00:19:58.676Z,18.72
2018-06-21T00:20:58.669Z,18.65
2018-06-21T00:21:58.656Z,18.66
2018-06-21T00:22:58.672Z,18.67
2018-06-21T00:23:58.626Z,18.60
2018-06-21T00:24:58.613Z,18.63
2018-06-21T00:25:58.673Z,18.70
2018-06-21T00:26:58.617Z,18.72
2018-06-21T00:27:58.625Z,18.67
2018-06-21T00:28:58.658Z,18.72
2018-06-21T00:29:58.658Z,18.69
2018-06-21T00:30:58.643Z,18.52
2018-06-21T00:31:58.663Z,18.60
2018-06-21T00:32:58.660Z,18.50
2018-06-21T00:33:58.682Z,18.47
2018-06-21T00:34:58.678Z,18.47
2018-06-21T00:35:58.666Z,18.48
2018-06-21T00:36:58.661Z,18.47
2018-06-21T00:37:58.696Z,18.44
2018-06-21T00:38:58.670Z,18.44
2018-06-21T00:39:58.894Z,18.41
2018-06-21T00:40:58.674Z,18.36
2018-06-21T00:41:58.671Z,18.39
2018-06-21T00:42:59.575Z,18.36
2018-06-21T00:43:58.689Z,18.30
2018-06-21T00:44:58.715Z,18.39
2018-06-21T00:45:58.702Z,18.36
2018-06-21T00:46:58.741Z,18.33
2018-06-21T00:47:58.669Z,18.39
2018-06-21T00:48:58.760Z,18.25
2018-06-21T00:49:58.671Z,18.32
2018-06-21T00:50:58.684Z,18.29
2018-06-21T00:51:58.705Z,18.30
2018-06-21T00:52:58.716Z,18.32
2018-06-21T00:53:58.704Z,18.17
2018-06-21T00:54:58.675Z,18.32
2018-06-21T00:55:58.712Z,18.30
2018-06-21T00:56:58.702Z,18.23
2018-06-21T00:57:58.766Z,18.17
2018-06-21T00:58:58.669Z,18.23
2018-06-21T00:59:58.714Z,18.23
2018-06-21T01:00:58.768Z,18.20
2018-06-21T01:01:58.700Z,18.26
2018-06-21T01:02:58.760Z,18.23
2018-06-21T01:03:58.694Z,18.20
2018-06-21T01:04:58.746Z,18.30
2018-06-21T01:05:58.785Z,18.33
2018-06-21T01:06:58.795Z,18.39
2018-06-21T01:07:58.714Z,18.36
2018-06-21T01:08:58.785Z,18.33
2018-06-21T01:09:58.731Z,18.33
2018-06-21T01:10:58.733Z,18.30
2018-06-21T01:11:58.731Z,18.32
2018-06-21T01:12:58.756Z,18.35
2018-06-21T01:13:59.576Z,18.32
2018-06-21T01:14:58.743Z,18.30
2018-06-21T01:15:58.766Z,18.30
2018-06-21T01:16:58.732Z,18.32
2018-06-21T01:17:58.765Z,18.36
2018-06-21T01:18:58.746Z,18.41
2018-06-21T01:19:58.818Z,18.36
2018-06-21T01:20:58.780Z,18.32
2018-06-21T01:21:58.794Z,18.30
2018-06-21T01:22:59.159Z,18.27
2018-06-21T01:23:58.731Z,18.32
2018-06-21T01:24:58.775Z,18.30
2018-06-21T01:25:58.809Z,18.27
2018-06-21T01:26:58.826Z,18.23
2018-06-21T01:27:58.821Z,18.27
2018-06-21T01:28:58.860Z,18.27
2018-06-21T01:29:58.762Z,18.25
2018-06-21T01:30:58.786Z,18.32
2018-06-21T01:31:58.841Z,18.36
2018-06-21T01:32:58.801Z,18.30
2018-06-21T01:33:58.803Z,18.35
2018-06-21T01:34:58.789Z,18.32
2018-06-21T01:35:58.808Z,18.27
2018-06-21T01:36:58.850Z,18.25
2018-06-21T01:37:58.863Z,18.18
2018-06-21T01:38:58.822Z,18.21
2018-06-21T01:39:58.843Z,18.25
2018-06-21T01:40:58.797Z,18.18
2018-06-21T01:41:58.846Z,18.25
2018-06-21T01:42:58.787Z,18.18
2018-06-21T01:43:58.846Z,18.23
2018-06-21T01:44:58.838Z,18.26
2018-06-21T01:45:58.854Z,18.17
2018-06-21T01:46:58.810Z,18.26
2018-06-21T01:47:58.838Z,18.21
2018-06-21T01:48:58.866Z,18.23
2018-06-21T01:49:58.859Z,18.12
2018-06-21T01:50:58.857Z,18.05
2018-06-21T01:51:58.888Z,18.07
2018-06-21T01:52:58.869Z,18.08
2018-06-21T01:53:58.900Z,18.05
2018-06-21T01:54:58.876Z,18.00
2018-06-21T01:55:58.854Z,18.02
2018-06-21T01:56:58.896Z,18.02
2018-06-21T01:57:58.865Z,18.00
2018-06-21T01:58:58.885Z,18.00
2018-06-21T01:59:58.841Z,17.96
2018-06-21T02:00:58.845Z,17.97
2018-06-21T02:01:58.843Z,17.93
2018-06-21T02:02:58.882Z,17.99
2018-06-21T02:03:58.930Z,17.96
2018-06-21T02:04:58.883Z,17.93
2018-06-21T02:05:58.879Z,17.96
2018-06-21T02:06:58.857Z,17.90
2018-06-21T02:07:58.913Z,17.90
2018-06-21T02:08:58.969Z,17.82
2018-06-21T02:09:58.902Z,17.86
2018-06-21T02:10:59.014Z,17.92
2018-06-21T02:11:58.895Z,17.86
2018-06-21T02:12:58.905Z,17.89
2018-06-21T02:13:58.871Z,17.86
2018-06-21T02:14:58.907Z,17.87
2018-06-21T02:15:58.867Z,17.89
2018-06-21T02:16:58.946Z,17.95
2018-06-21T02:17:58.958Z,17.90
2018-06-21T02:18:58.933Z,17.89
2018-06-21T02:19:58.888Z,17.97
2018-06-21T02:20:58.939Z,17.90
2018-06-21T02:21:58.949Z,17.92
2018-06-21T02:22:58.915Z,17.92
2018-06-21T02:23:58.940Z,17.86
2018-06-21T02:24:58.908Z,17.90
2018-06-21T02:25:58.944Z,17.89
2018-06-21T02:26:58.904Z,17.90
2018-06-21T02:27:58.976Z,17.86
2018-06-21T02:28:58.958Z,17.82
2018-06-21T02:29:58.966Z,17.93
2018-06-21T02:30:58.956Z,17.93
2018-06-21T02:31:58.973Z,17.95
2018-06-21T02:32:58.908Z,17.95
2018-06-21T02:33:58.968Z,18.02
2018-06-21T02:34:58.998Z,17.99
2018-06-21T02:35:58.912Z,17.90
2018-06-21T02:36:58.952Z,17.99
2018-06-21T02:37:58.976Z,17.90
2018-06-21T02:38:58.930Z,18.02
2018-06-21T02:39:58.978Z,17.95
2018-06-21T02:40:58.982Z,17.90
2018-06-21T02:41:58.968Z,17.97
2018-06-21T02:42:59.252Z,17.93
2018-06-21T02:43:59.008Z,17.93
2018-06-21T02:44:59.610Z,17.95
2018-06-21T02:45:58.984Z,17.99
2018-06-21T02:46:58.984Z,17.92
2018-06-21T02:47:58.990Z,17.92
2018-06-21T02:48:59.037Z,17.84
2018-06-21T02:49:58.968Z,17.87
2018-06-21T02:50:58.978Z,17.90
2018-06-21T02:51:59.088Z,17.89
2018-06-21T02:52:59.013Z,17.86
2018-06-21T02:53:58.971Z,17.84
2018-06-21T02:54:58.996Z,17.90
2018-06-21T02:55:59.952Z,17.90
2018-06-21T02:56:59.271Z,17.92
2018-06-21T02:57:59.071Z,17.99
2018-06-21T02:58:59.177Z,17.93
2018-06-21T02:59:59.147Z,17.92
2018-06-21T03:00:59.650Z,17.92
2018-06-21T03:01:59.151Z,17.87
2018-06-21T03:02:59.914Z,17.82
2018-06-21T03:03:59.261Z,17.74
2018-06-21T03:04:59.009Z,17.79
2018-06-21T03:05:59.020Z,17.75
2018-06-21T03:06:59.068Z,17.71
2018-06-21T03:07:59.076Z,17.72
2018-06-21T03:08:59.043Z,17.74
2018-06-21T03:09:59.056Z,17.77
2018-06-21T03:10:59.019Z,17.77
2018-06-21T03:11:59.619Z,17.75
2018-06-21T03:12:59.061Z,17.79
2018-06-21T03:13:59.063Z,17.78
2018-06-21T03:14:59.058Z,17.75
2018-06-21T03:15:59.034Z,17.74
2018-06-21T03:16:59.035Z,17.84
2018-06-21T03:17:59.625Z,17.86
2018-06-21T03:18:59.210Z,17.89
2018-06-21T03:19:59.045Z,17.82
2018-06-21T03:20:59.040Z,17.92
2018-06-21T03:21:59.119Z,17.81
2018-06-21T03:22:59.330Z,17.90
2018-06-21T03:23:59.124Z,17.92
2018-06-21T03:24:59.094Z,17.86
2018-06-21T03:25:59.074Z,17.89
2018-06-21T03:26:59.072Z,17.92
2018-06-21T03:27:59.107Z,17.81
2018-06-21T03:28:59.091Z,17.81
2018-06-21T03:29:59.130Z,17.79
2018-06-21T03:30:59.100Z,17.78
2018-06-21T03:31:59.113Z,17.78
2018-06-21T03:32:59.096Z,17.79
2018-06-21T03:33:59.080Z,17.89
2018-06-21T03:34:59.081Z,17.86
2018-06-21T03:35:59.114Z,17.89
2018-06-21T03:36:59.113Z,17.89
2018-06-21T03:37:59.098Z,17.89
2018-06-21T03:38:59.117Z,17.82
2018-06-21T03:39:59.124Z,17.84
2018-06-21T03:40:59.079Z,17.84
2018-06-21T03:41:59.119Z,17.89
2018-06-21T03:42:59.117Z,17.89
2018-06-21T03:43:59.120Z,17.92
2018-06-21T03:44:59.091Z,17.89
2018-06-21T03:45:59.119Z,17.96
2018-06-21T03:46:59.138Z,18.02
2018-06-21T03:47:59.152Z,18.00
2018-06-21T03:49:00.138Z,18.03
2018-06-21T03:49:59.130Z,18.17
2018-06-21T03:50:59.127Z,18.18
2018-06-21T03:51:59.117Z,18.25
2018-06-21T03:52:59.202Z,18.20
2018-06-21T03:53:59.144Z,18.18
2018-06-21T03:54:59.123Z,18.23
2018-06-21T03:55:59.169Z,18.27
2018-06-21T03:56:59.194Z,18.27
2018-06-21T03:57:59.184Z,18.36
2018-06-21T03:58:59.155Z,18.32
2018-06-21T03:59:59.230Z,18.32
2018-06-21T04:00:59.188Z,18.32
2018-06-21T04:01:59.131Z,18.33
2018-06-21T04:02:59.313Z,18.35
2018-06-21T04:03:59.178Z,18.33
2018-06-21T04:04:59.146Z,18.37
2018-06-21T04:05:59.154Z,18.32
2018-06-21T04:06:59.199Z,18.36
2018-06-21T04:07:59.214Z,18.42
2018-06-21T04:08:59.181Z,18.41
2018-06-21T04:09:59.184Z,18.50
2018-06-21T04:10:59.154Z,18.52
2018-06-21T04:11:59.227Z,18.57
2018-06-21T04:12:59.230Z,18.57
2018-06-21T04:13:59.187Z,18.70
2018-06-21T04:14:59.197Z,18.72
2018-06-21T04:15:59.265Z,18.73
2018-06-21T04:16:59.204Z,18.85
2018-06-21T04:17:59.226Z,18.80
2018-06-21T04:18:59.212Z,18.90
2018-06-21T04:19:59.172Z,19.00
2018-06-21T04:20:59.212Z,18.98
2018-06-21T04:21:59.234Z,19.08
2018-06-21T04:22:59.217Z,19.18
2018-06-21T04:23:59.249Z,19.06
2018-06-21T04:24:59.238Z,19.02
2018-06-21T04:25:59.272Z,19.06
2018-06-21T04:26:59.234Z,19.04
2018-06-21T04:28:01.484Z,19.07
2018-06-21T04:28:59.242Z,19.06
2018-06-21T04:29:59.241Z,19.02
2018-06-21T04:30:59.295Z,19.02
2018-06-21T04:31:59.211Z,18.98
2018-06-21T04:32:59.197Z,18.94
2018-06-21T04:33:59.244Z,18.91
2018-06-21T04:34:59.249Z,18.94
2018-06-21T04:35:59.316Z,19.07
2018-06-21T04:36:59.294Z,19.08
2018-06-21T04:37:59.224Z,19.08
2018-06-21T04:38:59.255Z,19.06
2018-06-21T04:39:59.281Z,19.07
2018-06-21T04:40:59.284Z,19.06
2018-06-21T04:41:59.258Z,19.10
2018-06-21T04:42:59.303Z,19.08
2018-06-21T04:43:59.273Z,19.19
2018-06-21T04:44:59.267Z,19.19
2018-06-21T04:45:59.266Z,19.22
2018-06-21T04:46:59.260Z,19.21
2018-06-21T04:47:59.304Z,19.21
2018-06-21T04:48:59.299Z,19.23
2018-06-21T04:49:59.264Z,19.26
2018-06-21T04:50:59.293Z,19.25
2018-06-21T04:51:59.310Z,19.33
2018-06-21T04:52:59.276Z,19.25
2018-06-21T04:53:59.302Z,19.13
2018-06-21T04:54:59.262Z,19.21
2018-06-21T04:55:59.310Z,19.26
2018-06-21T04:56:59.330Z,19.23
2018-06-21T04:57:59.328Z,19.26
2018-06-21T04:58:59.327Z,19.28
2018-06-21T04:59:59.376Z,19.10
2018-06-21T05:00:59.300Z,19.18
2018-06-21T05:01:59.274Z,19.10
2018-06-21T05:02:59.312Z,19.19
2018-06-21T05:03:59.330Z,19.18
2018-06-21T05:04:59.353Z,19.11
2018-06-21T05:05:59.393Z,19.14
2018-06-21T05:06:59.350Z,19.07
2018-06-21T05:07:59.324Z,19.02
2018-06-21T05:08:59.412Z,19.06
2018-06-21T05:09:59.342Z,19.14
2018-06-21T05:10:59.351Z,19.10
2018-06-21T05:11:59.368Z,19.14
2018-06-21T05:12:59.373Z,19.21
2018-06-21T05:13:59.335Z,19.11
2018-06-21T05:14:59.363Z,19.10
2018-06-21T05:15:59.355Z,19.10
2018-06-21T05:16:59.313Z,19.07
2018-06-21T05:17:59.387Z,19.04
2018-06-21T05:18:59.406Z,18.95
2018-06-21T05:19:59.438Z,19.00
2018-06-21T05:20:59.349Z,18.94
2018-06-21T05:21:59.506Z,18.98
2018-06-21T05:22:59.375Z,18.92
2018-06-21T05:23:59.492Z,18.95
2018-06-21T05:24:59.414Z,18.95
2018-06-21T05:25:59.338Z,18.95
2018-06-21T05:26:59.386Z,18.90
2018-06-21T05:27:59.412Z,18.67
2018-06-21T05:28:59.446Z,18.76
2018-06-21T05:29:59.433Z,18.72
2018-06-21T05:30:59.428Z,18.67
2018-06-21T05:31:59.406Z,18.66
2018-06-21T05:32:59.373Z,18.65
2018-06-21T05:33:59.397Z,18.73
2018-06-21T05:34:59.403Z,18.63
2018-06-21T05:35:59.457Z,18.73
2018-06-21T05:36:59.387Z,18.69
2018-06-21T05:37:59.443Z,18.73
2018-06-21T05:38:59.415Z,18.62
2018-06-21T05:39:59.430Z,18.69
2018-06-21T05:40:59.539Z,18.73
2018-06-21T05:41:59.379Z,18.72
2018-06-21T05:43:00.180Z,18.76
2018-06-21T05:43:59.376Z,18.70
2018-06-21T05:44:59.403Z,18.62
2018-06-21T05:45:59.405Z,18.54
2018-06-21T05:46:59.467Z,18.62
2018-06-21T05:47:59.396Z,18.60
2018-06-21T05:48:59.464Z,18.52
2018-06-21T05:49:59.467Z,18.48
2018-06-21T05:50:59.633Z,18.47
2018-06-21T05:51:59.428Z,18.44
2018-06-21T05:52:59.540Z,18.51
2018-06-21T05:53:59.466Z,18.48
2018-06-21T05:54:59.548Z,18.52
2018-06-21T05:55:59.524Z,18.69
2018-06-21T05:56:59.463Z,18.90
2018-06-21T05:57:59.440Z,18.99
2018-06-21T05:58:59.457Z,18.95
2018-06-21T05:59:59.534Z,18.92
2018-06-21T06:00:59.543Z,18.87
2018-06-21T06:01:59.555Z,18.85
2018-06-21T06:02:59.492Z,18.72
2018-06-21T06:03:59.502Z,18.80
2018-06-21T06:04:59.496Z,18.66
2018-06-21T06:05:59.472Z,18.70
2018-06-21T06:06:59.483Z,18.65
2018-06-21T06:07:59.484Z,18.57
2018-06-21T06:08:59.549Z,18.55
2018-06-21T06:09:59.515Z,18.47
2018-06-21T06:10:59.488Z,18.32
2018-06-21T06:11:59.507Z,18.18
2018-06-21T06:13:01.877Z,18.21
2018-06-21T06:13:59.561Z,18.32
2018-06-21T06:14:59.582Z,18.18
2018-06-21T06:15:59.570Z,18.21
2018-06-21T06:16:59.513Z,18.17
2018-06-21T06:17:59.577Z,18.25
2018-06-21T06:18:59.527Z,18.23
2018-06-21T06:20:00.212Z,18.17
2018-06-21T06:20:59.536Z,18.21
2018-06-21T06:21:59.674Z,18.15
2018-06-21T06:22:59.519Z,18.12
2018-06-21T06:24:00.201Z,18.07
2018-06-21T06:24:59.530Z,18.05
2018-06-21T06:25:59.567Z,18.25
2018-06-21T06:26:59.552Z,18.27
2018-06-21T06:27:59.780Z,18.17
2018-06-21T06:28:59.536Z,18.03
2018-06-21T06:30:00.211Z,18.03
2018-06-21T06:30:59.666Z,18.07
2018-06-21T06:31:59.786Z,18.03
2018-06-21T06:32:59.522Z,18.02
2018-06-21T06:33:59.625Z,17.95
2018-06-21T06:34:59.962Z,17.86
2018-06-21T06:35:59.530Z,17.82
2018-06-21T06:36:59.670Z,17.93
2018-06-21T06:37:59.631Z,17.87
2018-06-21T06:38:59.605Z,17.96
2018-06-21T06:39:59.559Z,17.87
2018-06-21T06:40:59.564Z,17.93
2018-06-21T06:41:59.568Z,17.93
2018-06-21T06:42:59.880Z,17.93
2018-06-21T06:43:59.659Z,17.87
2018-06-21T06:44:59.606Z,17.89
2018-06-21T06:45:59.592Z,17.86
2018-06-21T06:46:59.583Z,17.82
2018-06-21T06:47:59.581Z,17.78
2018-06-21T06:48:59.613Z,17.75
2018-06-21T06:49:59.722Z,17.89
2018-06-21T06:50:59.652Z,17.93
2018-06-21T06:51:59.611Z,18.00
2018-06-21T06:52:59.553Z,18.00
2018-06-21T06:54:00.398Z,17.99
2018-06-21T06:54:59.564Z,18.11
2018-06-21T06:56:59.603Z,18.08
2018-06-21T06:57:59.604Z,18.03
2018-06-21T06:58:59.676Z,18.00
2018-06-21T07:00:00.207Z,18.00
2018-06-21T07:00:59.618Z,17.95
2018-06-21T07:01:59.628Z,17.92
2018-06-21T07:02:59.627Z,17.99
2018-06-21T07:03:59.628Z,17.95
2018-06-21T07:04:59.579Z,17.95
2018-06-21T07:06:00.227Z,17.95
2018-06-21T07:06:59.677Z,17.97
2018-06-21T07:07:59.606Z,18.00
2018-06-21T07:08:59.655Z,18.00
2018-06-21T07:09:59.713Z,18.05
2018-06-21T07:10:59.618Z,18.00
2018-06-21T07:11:59.651Z,18.00
2018-06-21T07:12:59.701Z,17.90
2018-06-21T07:13:59.677Z,18.03
2018-06-21T07:14:59.694Z,18.12
2018-06-21T07:15:59.660Z,18.08
2018-06-21T07:17:02.508Z,17.96
2018-06-21T07:18:21.138Z,18.08
2018-06-21T07:18:59.670Z,18.11
2018-06-21T07:19:59.707Z,18.02
2018-06-21T07:21:00.300Z,17.95
2018-06-21T07:22:00.714Z,18.00
2018-06-21T07:22:59.724Z,18.05
2018-06-21T07:24:00.597Z,18.02
2018-06-21T07:24:59.650Z,18.11
2018-06-21T07:25:59.682Z,18.05
2018-06-21T07:26:59.740Z,18.02
2018-06-21T07:27:59.989Z,17.79
2018-06-21T07:28:59.648Z,17.84
2018-06-21T07:29:59.687Z,17.62
2018-06-21T07:30:59.670Z,17.64
2018-06-21T07:32:00.353Z,17.64
2018-06-21T07:32:59.741Z,17.55
2018-06-21T07:33:59.733Z,17.70
2018-06-21T07:34:59.743Z,17.64
2018-06-21T07:35:59.742Z,17.64
2018-06-21T07:36:59.679Z,17.78
2018-06-21T07:37:59.731Z,18.03
2018-06-21T07:39:01.037Z,18.35
2018-06-21T07:40:00.139Z,18.17
2018-06-21T07:40:59.718Z,18.39
2018-06-21T07:41:59.732Z,18.42
2018-06-21T07:42:59.739Z,18.37
2018-06-21T07:43:59.728Z,18.51
2018-06-21T07:44:59.794Z,18.33
2018-06-21T07:45:59.755Z,18.27
2018-06-21T07:46:59.769Z,18.03
2018-06-21T07:47:59.718Z,17.96
2018-06-21T07:49:00.229Z,18.03
2018-06-21T07:49:59.738Z,17.90
2018-06-21T07:50:59.765Z,18.00
2018-06-21T07:51:59.702Z,17.96
2018-06-21T07:52:59.758Z,17.87
2018-06-21T07:53:59.713Z,18.00
2018-06-21T07:54:59.859Z,18.08
2018-06-21T07:55:59.838Z,17.95
2018-06-21T07:56:59.726Z,17.99
2018-06-21T07:57:59.753Z,18.23
2018-06-21T07:58:59.864Z,18.36
2018-06-21T07:59:59.750Z,18.69
2018-06-21T08:00:59.806Z,19.07
2018-06-21T08:02:00.367Z,19.19
2018-06-21T08:02:59.777Z,19.28
2018-06-21T08:04:00.359Z,19.48
2018-06-21T08:04:59.861Z,20.08
2018-06-21T08:05:59.834Z,20.33
2018-06-21T08:06:59.897Z,20.89
2018-06-21T08:07:59.764Z,21.24
2018-06-21T08:08:59.823Z,21.64
2018-06-21T08:10:04.393Z,22.43
2018-06-21T08:10:59.778Z,22.58
2018-06-21T08:11:59.895Z,22.12
2018-06-21T08:12:59.867Z,21.83
2018-06-21T08:13:59.795Z,21.46
2018-06-21T08:14:59.780Z,21.94
2018-06-21T08:15:59.846Z,22.43
2018-06-21T08:16:59.924Z,22.64
2018-06-21T08:17:59.845Z,23.23
2018-06-21T08:18:59.863Z,23.94
2018-06-21T08:20:00.386Z,24.03
2018-06-21T08:20:59.853Z,24.27
2018-06-21T08:21:59.968Z,23.20
2018-06-21T08:23:00.510Z,22.52
2018-06-21T08:23:59.820Z,22.20
2018-06-21T08:25:00.147Z,21.67
2018-06-21T08:25:59.942Z,21.34
2018-06-21T08:26:59.916Z,20.77
2018-06-21T08:27:59.905Z,20.58
2018-06-21T08:28:59.910Z,20.48
2018-06-21T08:30:00.859Z,19.98
2018-06-21T08:31:00.912Z,19.78
2018-06-21T08:32:03.000Z,19.66
2018-06-21T08:33:02.848Z,19.58
2018-06-21T08:33:59.986Z,19.69
2018-06-21T08:35:09.492Z,20.01
2018-06-21T08:36:00.345Z,19.84
2018-06-21T08:37:00.116Z,20.50
2018-06-21T08:37:59.985Z,21.71
2018-06-21T08:39:00.224Z,21.80
2018-06-21T08:40:00.103Z,21.29
2018-06-21T08:41:00.222Z,21.09
2018-06-21T08:41:59.929Z,21.14
2018-06-21T08:43:00.009Z,22.09
2018-06-21T08:43:59.962Z,22.86
2018-06-21T08:45:00.057Z,22.65
2018-06-21T08:46:00.007Z,22.57
2018-06-21T08:47:00.047Z,22.37
2018-06-21T08:47:59.996Z,21.72
2018-06-21T08:49:04.906Z,21.21
2018-06-21T08:49:59.986Z,20.74
2018-06-21T08:50:59.991Z,20.85
2018-06-21T08:52:00.943Z,20.88
2018-06-21T08:53:00.109Z,21.62
2018-06-21T08:54:00.017Z,22.55
2018-06-21T08:55:00.040Z,22.97
2018-06-21T08:56:00.660Z,23.88
2018-06-21T08:57:01.388Z,23.93
2018-06-21T08:58:00.906Z,23.55
2018-06-21T08:59:00.028Z,23.79
2018-06-21T09:00:00.117Z,24.12
2018-06-21T09:01:00.803Z,23.60
2018-06-21T09:02:00.087Z,23.32
2018-06-21T09:03:00.121Z,23.27
2018-06-21T09:04:00.042Z,23.54
2018-06-21T09:05:00.082Z,23.79
2018-06-21T09:06:00.098Z,24.30
2018-06-21T09:07:02.913Z,24.91
2018-06-21T09:08:00.164Z,25.27
2018-06-21T09:09:00.769Z,24.62
2018-06-21T09:10:00.123Z,24.45
2018-06-21T09:11:00.104Z,24.46
2018-06-21T09:12:00.132Z,24.83
2018-06-21T09:13:00.161Z,25.14
2018-06-21T09:14:00.771Z,24.96
2018-06-21T09:15:00.456Z,25.00
2018-06-21T09:16:01.745Z,24.67
2018-06-21T09:17:00.219Z,24.25
2018-06-21T09:18:06.934Z,23.93
2018-06-21T09:19:00.171Z,23.07
2018-06-21T09:20:00.146Z,23.01
2018-06-21T09:21:00.246Z,23.19
2018-06-21T09:22:00.227Z,22.58
2018-06-21T09:23:00.219Z,22.33
2018-06-21T09:24:00.356Z,21.96
2018-06-21T09:25:00.195Z,21.54
2018-06-21T09:26:08.504Z,21.17
2018-06-21T09:27:00.869Z,20.67
2018-06-21T09:28:00.242Z,20.18
2018-06-21T09:29:00.272Z,19.80
2018-06-21T09:30:00.348Z,19.43
2018-06-21T09:31:00.785Z,18.95
2018-06-21T09:32:00.308Z,18.51
2018-06-21T09:33:00.314Z,18.18
2018-06-21T09:34:00.347Z,18.14
2018-06-21T09:35:00.293Z,18.03
2018-06-21T09:36:00.308Z,17.84
2018-06-21T09:37:00.455Z,17.89
2018-06-21T09:38:00.310Z,17.86
2018-06-21T09:39:00.263Z,18.17
2018-06-21T09:40:00.293Z,18.35
2018-06-21T09:41:00.367Z,18.70
2018-06-21T09:42:00.296Z,19.68
2018-06-21T09:43:00.322Z,20.69
2018-06-21T09:44:03.821Z,21.72
2018-06-21T09:45:00.328Z,22.58
2018-06-21T09:46:00.415Z,23.38
2018-06-21T09:47:00.797Z,23.60
2018-06-21T09:48:00.422Z,24.46
2018-06-21T09:49:00.405Z,25.08
2018-06-21T09:50:00.380Z,25.46
2018-06-21T09:51:00.419Z,25.27
2018-06-21T09:52:00.388Z,24.64
2018-06-21T09:53:00.438Z,25.20
2018-06-21T09:54:00.474Z,24.98
2018-06-21T09:55:00.430Z,25.45
2018-06-21T09:56:00.435Z,25.36
2018-06-21T09:57:00.424Z,25.45
2018-06-21T09:58:01.305Z,23.90
2018-06-21T09:59:00.474Z,22.33
2018-06-21T10:00:00.931Z,23.01
2018-06-21T10:01:00.514Z,22.95
2018-06-21T10:02:00.625Z,21.86
2018-06-21T10:03:01.450Z,22.37
2018-06-21T10:04:00.531Z,22.12
2018-06-21T10:05:00.542Z,22.73
2018-06-21T10:06:00.792Z,21.92
2018-06-21T10:07:00.690Z,21.44
2018-06-21T10:08:00.551Z,21.07
2018-06-21T10:09:01.312Z,20.99
2018-06-21T10:10:00.645Z,20.57
2018-06-21T10:11:00.688Z,20.14
2018-06-21T10:12:01.569Z,20.05
2018-06-21T10:13:00.930Z,20.24
2018-06-21T10:14:00.679Z,20.38
2018-06-21T10:15:01.311Z,20.02
2018-06-21T10:16:00.703Z,20.36
2018-06-21T10:17:00.654Z,21.52
2018-06-21T10:18:00.669Z,22.05
2018-06-21T10:19:01.305Z,23.07
2018-06-21T10:20:00.679Z,23.51
2018-06-21T10:21:00.726Z,23.12
2018-06-21T10:22:00.726Z,23.38
2018-06-21T10:23:00.702Z,23.57
2018-06-21T10:24:00.806Z,24.25
2018-06-21T10:25:00.817Z,24.85
2018-06-21T10:26:00.758Z,25.43
2018-06-21T10:27:00.734Z,25.14
2018-06-21T10:28:00.789Z,25.10
2018-06-21T10:29:00.794Z,25.09
2018-06-21T10:30:06.672Z,24.99
2018-06-21T10:31:02.340Z,25.35
2018-06-21T10:32:00.841Z,25.47
2018-06-21T10:33:00.963Z,25.15
2018-06-21T10:34:00.927Z,24.73
2018-06-21T10:35:00.939Z,24.24
2018-06-21T10:36:00.969Z,24.27
2018-06-21T10:37:00.924Z,24.22
2018-06-21T10:38:00.891Z,23.91
2018-06-21T10:39:01.003Z,23.20
2018-06-21T10:40:00.911Z,23.07
2018-06-21T10:41:01.428Z,23.39
2018-06-21T10:42:08.326Z,22.94
2018-06-21T10:43:11.545Z,21.94
2018-06-21T10:44:00.954Z,21.56
2018-06-21T10:45:01.058Z,22.06
2018-06-21T10:46:01.838Z,22.05
2018-06-21T10:47:01.034Z,22.06
2018-06-21T10:48:01.040Z,22.24
2018-06-21T10:49:01.112Z,22.57
2018-06-21T10:50:01.055Z,22.80
2018-06-21T10:51:01.024Z,22.09
2018-06-21T10:52:01.099Z,21.64
2018-06-21T10:53:01.024Z,21.75
2018-06-21T10:54:01.055Z,22.03
2018-06-21T10:55:01.836Z,21.99
2018-06-21T10:56:01.039Z,22.09
2018-06-21T10:57:01.084Z,21.91
2018-06-21T10:58:01.090Z,22.07
2018-06-21T10:59:01.061Z,22.15
2018-06-21T11:00:01.151Z,22.12
2018-06-21T11:01:01.081Z,22.10
2018-06-21T11:02:01.081Z,22.07
2018-06-21T11:03:01.239Z,21.83
2018-06-21T11:04:01.072Z,21.71
2018-06-21T11:05:01.082Z,21.72
2018-06-21T11:06:01.066Z,22.07
2018-06-21T11:07:01.140Z,21.74
2018-06-21T11:08:01.122Z,21.88
2018-06-21T11:09:01.125Z,22.33
2018-06-21T11:10:01.156Z,22.47
2018-06-21T11:11:01.105Z,22.64
2018-06-21T11:12:01.163Z,22.90
2018-06-21T11:13:01.148Z,22.94
2018-06-21T11:14:01.191Z,23.02
2018-06-21T11:15:01.243Z,23.09
2018-06-21T11:16:01.325Z,22.35
2018-06-21T11:17:01.332Z,21.59
2018-06-21T11:18:01.219Z,21.31
2018-06-21T11:19:01.263Z,21.25
2018-06-21T11:20:01.191Z,21.07
2018-06-21T11:21:01.140Z,20.85
2018-06-21T11:22:01.244Z,20.67
2018-06-21T11:23:01.880Z,20.52
2018-06-21T11:24:01.235Z,20.70
2018-06-21T11:25:01.383Z,20.36
2018-06-21T11:26:01.992Z,20.38
2018-06-21T11:27:01.212Z,20.51
2018-06-21T11:28:01.269Z,20.41
2018-06-21T11:29:01.296Z,20.33
2018-06-21T11:30:01.897Z,20.55
2018-06-21T11:31:01.341Z,20.97
2018-06-21T11:32:01.273Z,21.28
2018-06-21T11:33:01.484Z,21.29
2018-06-21T11:34:02.059Z,21.58
2018-06-21T11:35:01.269Z,21.69
2018-06-21T11:36:01.852Z,21.61
2018-06-21T11:37:01.373Z,21.24
2018-06-21T11:38:01.227Z,21.47
2018-06-21T11:39:01.381Z,21.72
2018-06-21T11:40:01.400Z,21.77
2018-06-21T11:41:01.295Z,21.54
2018-06-21T11:42:01.306Z,21.47
2018-06-21T11:43:01.338Z,21.67
2018-06-21T11:44:01.286Z,21.75
2018-06-21T11:45:01.861Z,21.72
2018-06-21T11:46:01.301Z,21.68
2018-06-21T11:47:01.316Z,21.24
2018-06-21T11:48:01.331Z,21.50
2018-06-21T11:49:01.411Z,21.86
2018-06-21T11:50:02.044Z,22.03
2018-06-21T11:51:01.467Z,21.61
2018-06-21T11:52:01.421Z,21.10
2018-06-21T11:53:01.356Z,21.03
2018-06-21T11:54:01.372Z,21.13
2018-06-21T11:55:01.922Z,21.03
2018-06-21T11:56:02.226Z,20.97
2018-06-21T11:57:02.496Z,20.98
2018-06-21T11:58:02.863Z,21.24
2018-06-21T11:59:01.644Z,21.14
2018-06-21T12:00:01.427Z,21.44
2018-06-21T12:01:01.693Z,21.71
2018-06-21T12:02:01.624Z,21.65
2018-06-21T12:03:01.452Z,21.47
2018-06-21T12:04:01.641Z,21.74
2018-06-21T12:05:01.417Z,21.71
2018-06-21T12:06:01.356Z,21.75
2018-06-21T12:07:01.370Z,21.92
2018-06-21T12:08:01.501Z,21.82
2018-06-21T12:09:02.080Z,21.44
2018-06-21T12:10:04.008Z,21.12
2018-06-21T12:11:03.980Z,20.98
2018-06-21T12:12:01.469Z,21.32
2018-06-21T12:13:01.449Z,21.27
2018-06-21T12:14:01.386Z,21.06
2018-06-21T12:15:01.503Z,20.85
2018-06-21T12:16:01.518Z,20.73
2018-06-21T12:17:01.422Z,20.67
2018-06-21T12:18:01.872Z,20.69
2018-06-21T12:19:01.425Z,20.85
2018-06-21T12:20:01.441Z,20.97
2018-06-21T12:21:01.457Z,21.22
2018-06-21T12:22:01.472Z,21.29
2018-06-21T12:23:02.068Z,21.43
2018-06-21T12:24:01.443Z,21.64
2018-06-21T12:25:01.594Z,21.74
2018-06-21T12:26:01.514Z,21.92
2018-06-21T12:27:01.415Z,21.83
2018-06-21T12:28:01.491Z,21.49
2018-06-21T12:29:01.587Z,21.47
2018-06-21T12:30:01.489Z,21.54
2018-06-21T12:31:01.963Z,21.69
2018-06-21T12:32:08.111Z,21.44
2018-06-21T12:33:04.029Z,21.22
2018-06-21T12:34:01.931Z,21.31
2018-06-21T12:35:01.483Z,21.56
2018-06-21T12:36:01.562Z,21.44
2018-06-21T12:37:01.534Z,21.62
2018-06-21T12:38:01.677Z,21.56
2018-06-21T12:39:01.576Z,21.50
2018-06-21T12:40:02.132Z,21.37
2018-06-21T12:41:01.539Z,21.22
2018-06-21T12:42:01.938Z,21.22
2018-06-21T12:43:01.577Z,21.13
2018-06-21T12:44:02.154Z,21.34
2018-06-21T12:45:01.532Z,21.47
2018-06-21T12:46:01.703Z,21.38
2018-06-21T12:47:01.566Z,21.40
2018-06-21T12:48:01.511Z,21.42
2018-06-21T12:50:01.547Z,21.74
2018-06-21T12:51:05.056Z,21.58
2018-06-21T12:52:02.483Z,21.35
2018-06-21T12:53:02.290Z,20.85
2018-06-21T12:54:01.977Z,20.98
2018-06-21T12:55:04.260Z,20.98